sensor_id;sensor_type;location;lat;lon;timestamp;P1;durP1;ratioP1;P2;durP2;ratioP2
40248;SDS011;25969;49.970;11.062;2023-07-31T04:07:48;4.65;;;1.30;;
40248;SDS011;25969;49.970;11.062;2023-07-31T04:17:48;3.73;;;1.13;;
40248;SDS011;25969;49.970;11.062;2023-07-31T04:27:49;4.03;;;1.10;;
40248;SDS011;25969;49.970;11.062;2023-07-31T04:37:50;5.23;;;1.10;;
40248;SDS011;25969;49.970;11.062;2023-07-31T04:47:50;5.60;;;1.23;;
40248;SDS011;25969;49.970;11.062;2023-07-31T04:57:51;4.67;;;1.17;;
40248;SDS011;25969;49.970;11.062;2023-07-31T05:07:52;3.97;;;1.30;;
40248;SDS011;25969;49.970;11.062;2023-07-31T05:17:52;6.87;;;1.50;;
40248;SDS011;25969;49.970;11.062;2023-07-31T05:27:53;6.27;;;1.90;;
40248;SDS011;25969;49.970;11.062;2023-07-31T05:37:54;3.63;;;1.30;;
40248;SDS011;25969;49.970;11.062;2023-07-31T05:47:55;5.17;;;1.50;;
40248;SDS011;25969;49.970;11.062;2023-07-31T05:57:55;6.60;;;1.47;;
40248;SDS011;25969;49.970;11.062;2023-07-31T06:07:56;2.57;;;1.00;;
40248;SDS011;25969;49.970;11.062;2023-07-31T06:17:57;7.30;;;1.83;;
40248;SDS011;25969;49.970;11.062;2023-07-31T06:27:59;3.92;;;1.38;;
40248;SDS011;25969;49.970;11.062;2023-07-31T06:37:59;6.30;;;1.40;;
40248;SDS011;25969;49.970;11.062;2023-07-31T06:48:02;4.95;;;1.50;;
40248;SDS011;25969;49.970;11.062;2023-07-31T06:58:05;11.57;;;1.65;;
40248;SDS011;25969;49.970;11.062;2023-07-31T07:08:05;7.20;;;1.57;;
40248;SDS011;25969;49.970;11.062;2023-07-31T07:18:06;7.63;;;1.77;;
40248;SDS011;25969;49.970;11.062;2023-07-31T07:28:07;5.45;;;1.77;;
40248;SDS011;25969;49.970;11.062;2023-07-31T07:38:08;4.63;;;1.60;;
40248;SDS011;25969;49.970;11.062;2023-07-31T07:58:09;4.68;;;1.42;;
40248;SDS011;25969;49.970;11.062;2023-07-31T08:08:13;9.80;;;1.63;;
40248;SDS011;25969;49.970;11.062;2023-07-31T08:18:15;5.95;;;1.40;;
40248;SDS011;25969;49.970;11.062;2023-07-31T08:28:17;7.88;;;1.58;;
40248;SDS011;25969;49.970;11.062;2023-07-31T08:38:18;4.75;;;1.52;;
40248;SDS011;25969;49.970;11.062;2023-07-31T08:48:20;9.13;;;1.63;;
40248;SDS011;25969;49.970;11.062;2023-07-31T08:58:23;5.47;;;1.63;;
40248;SDS011;25969;49.970;11.062;2023-07-31T09:08:26;3.83;;;1.42;;
40248;SDS011;25969;49.970;11.062;2023-07-31T09:18:30;6.30;;;1.40;;
40248;SDS011;25969;49.970;11.062;2023-07-31T09:28:31;3.53;;;1.35;;
40248;SDS011;25969;49.970;11.062;2023-07-31T09:38:31;4.90;;;1.70;;
40248;SDS011;25969;49.970;11.062;2023-07-31T09:48:32;3.25;;;1.30;;
40248;SDS011;25969;49.970;11.062;2023-07-31T09:58:39;3.65;;;1.30;;
40248;SDS011;25969;49.970;11.062;2023-07-31T10:08:40;4.07;;;1.50;;
40248;SDS011;25969;49.970;11.062;2023-07-31T10:18:42;4.85;;;1.30;;
40248;SDS011;25969;49.970;11.062;2023-07-31T10:28:43;2.88;;;1.45;;
40248;SDS011;25969;49.970;11.062;2023-07-31T10:38:49;4.85;;;1.70;;
40248;SDS011;25969;49.970;11.062;2023-07-31T10:49:02;3.00;;;1.30;;
40248;SDS011;25969;49.970;11.062;2023-07-31T10:59:03;3.42;;;1.10;;
40248;SDS011;25969;49.970;11.062;2023-07-31T11:09:04;3.30;;;1.40;;
40248;SDS011;25969;49.970;11.062;2023-07-31T11:19:08;4.80;;;1.55;;
40248;SDS011;25969;49.970;11.062;2023-07-31T11:29:12;3.95;;;1.40;;
40248;SDS011;25969;49.970;11.062;2023-07-31T11:39:13;8.50;;;2.03;;
40248;SDS011;25969;49.970;11.062;2023-07-31T11:49:14;7.45;;;1.75;;
40248;SDS011;25969;49.970;11.062;2023-07-31T11:59:15;3.55;;;1.48;;
40248;SDS011;25969;49.970;11.062;2023-07-31T12:09:16;3.83;;;1.60;;
40248;SDS011;25969;49.970;11.062;2023-07-31T12:19:18;5.57;;;1.90;;
40248;SDS011;25969;49.970;11.062;2023-07-31T12:29:19;3.15;;;1.65;;
40248;SDS011;25969;49.970;11.062;2023-07-31T12:39:20;3.15;;;1.52;;
40248;SDS011;25969;49.970;11.062;2023-07-31T12:49:20;4.47;;;1.80;;
40248;SDS011;25969;49.970;11.062;2023-07-31T12:59:21;5.07;;;1.90;;
40248;SDS011;25969;49.970;11.062;2023-07-31T13:09:22;5.60;;;1.65;;
40248;SDS011;25969;49.970;11.062;2023-07-31T13:19:23;7.05;;;2.00;;
40248;SDS011;25969;49.970;11.062;2023-07-31T13:29:23;5.60;;;1.70;;
40248;SDS011;25969;49.970;11.062;2023-07-31T13:39:24;5.20;;;1.85;;
40248;SDS011;25969;49.970;11.062;2023-07-31T13:49:25;4.78;;;2.08;;
40248;SDS011;25969;49.970;11.062;2023-07-31T13:59:26;4.68;;;1.77;;
40248;SDS011;25969;49.970;11.062;2023-07-31T14:09:26;5.70;;;2.03;;
40248;SDS011;25969;49.970;11.062;2023-07-31T14:19:28;3.45;;;2.00;;
40248;SDS011;25969;49.970;11.062;2023-07-31T14:29:29;8.43;;;2.80;;
40248;SDS011;25969;49.970;11.062;2023-07-31T14:39:30;8.65;;;3.05;;
40248;SDS011;25969;49.970;11.062;2023-07-31T14:49:30;6.38;;;2.17;;
40248;SDS011;25969;49.970;11.062;2023-07-31T14:59:31;6.47;;;1.92;;
40248;SDS011;25969;49.970;11.062;2023-07-31T15:09:32;6.35;;;2.10;;
40248;SDS011;25969;49.970;11.062;2023-07-31T15:19:33;7.05;;;2.65;;
40248;SDS011;25969;49.970;11.062;2023-07-31T15:29:35;5.10;;;2.17;;
40248;SDS011;25969;49.970;11.062;2023-07-31T15:39:37;4.78;;;1.85;;
40248;SDS011;25969;49.970;11.062;2023-07-31T15:49:37;5.25;;;1.85;;
40248;SDS011;25969;49.970;11.062;2023-07-31T15:59:38;3.65;;;1.90;;
40248;SDS011;25969;49.970;11.062;2023-07-31T16:09:39;4.75;;;1.80;;
40248;SDS011;25969;49.970;11.062;2023-07-31T16:19:39;6.82;;;2.17;;
40248;SDS011;25969;49.970;11.062;2023-07-31T16:29:40;5.55;;;1.63;;
40248;SDS011;25969;49.970;11.062;2023-07-31T16:39:41;8.38;;;2.15;;
40248;SDS011;25969;49.970;11.062;2023-07-31T16:49:45;6.10;;;1.92;;
40248;SDS011;25969;49.970;11.062;2023-07-31T16:59:46;5.72;;;2.10;;
40248;SDS011;25969;49.970;11.062;2023-07-31T17:09:46;3.70;;;1.90;;
40248;SDS011;25969;49.970;11.062;2023-07-31T17:19:47;6.15;;;1.75;;
40248;SDS011;25969;49.970;11.062;2023-07-31T17:29:48;9.95;;;1.92;;
40248;SDS011;25969;49.970;11.062;2023-07-31T17:39:49;6.53;;;1.52;;
40248;SDS011;25969;49.970;11.062;2023-07-31T17:49:49;5.95;;;2.25;;
40248;SDS011;25969;49.970;11.062;2023-07-31T17:59:50;7.15;;;1.98;;
40248;SDS011;25969;49.970;11.062;2023-07-31T18:09:52;5.72;;;2.25;;
40248;SDS011;25969;49.970;11.062;2023-07-31T18:19:53;8.32;;;2.20;;
40248;SDS011;25969;49.970;11.062;2023-07-31T18:29:53;7.28;;;1.90;;
40248;SDS011;25969;49.970;11.062;2023-07-31T18:39:54;5.03;;;1.98;;
40248;SDS011;25969;49.970;11.062;2023-07-31T18:49:55;5.47;;;1.85;;
40248;SDS011;25969;49.970;11.062;2023-07-31T18:59:56;6.75;;;2.03;;
40248;SDS011;25969;49.970;11.062;2023-07-31T19:09:56;8.88;;;1.90;;
40248;SDS011;25969;49.970;11.062;2023-07-31T19:19:59;3.72;;;1.92;;
40248;SDS011;25969;49.970;11.062;2023-07-31T19:30:00;4.53;;;1.98;;
40248;SDS011;25969;49.970;11.062;2023-07-31T19:40:01;5.97;;;1.88;;
40248;SDS011;25969;49.970;11.062;2023-07-31T20:00:03;5.57;;;1.70;;
40248;SDS011;25969;49.970;11.062;2023-07-31T20:10:10;4.78;;;2.08;;
40248;SDS011;25969;49.970;11.062;2023-07-31T20:20:11;5.70;;;2.30;;
40248;SDS011;25969;49.970;11.062;2023-07-31T20:30:11;7.70;;;2.92;;
40248;SDS011;25969;49.970;11.062;2023-07-31T20:40:12;5.40;;;2.40;;
40248;SDS011;25969;49.970;11.062;2023-07-31T20:50:13;5.30;;;2.70;;
40248;SDS011;25969;49.970;11.062;2023-07-31T21:00:14;5.63;;;2.83;;
40248;SDS011;25969;49.970;11.062;2023-07-31T21:10:16;9.73;;;2.85;;
40248;SDS011;25969;49.970;11.062;2023-07-31T21:20:17;6.10;;;2.63;;
40248;SDS011;25969;49.970;11.062;2023-07-31T21:30:18;6.10;;;3.27;;
40248;SDS011;25969;49.970;11.062;2023-07-31T21:40:18;7.57;;;3.10;;
40248;SDS011;25969;49.970;11.062;2023-07-31T21:50:19;5.28;;;2.67;;
